createdAt,value
2019-05-02T00:02:28.929Z,10.00
2019-05-02T00:04:57.680Z,10.00
2019-05-02T00:07:28.647Z,10.00
2019-05-02T00:09:59.593Z,10.00
2019-05-02T00:12:31.143Z,10.00
2019-05-02T00:15:04.048Z,9.90
2019-05-02T00:17:35.361Z,9.90
2019-05-02T00:20:10.120Z,9.80
2019-05-02T00:22:41.275Z,9.80
2019-05-02T00:25:15.956Z,9.70
2019-05-02T00:27:45.144Z,9.70
2019-05-02T00:30:17.392Z,9.70
2019-05-02T00:32:48.415Z,9.70
2019-05-02T00:35:19.286Z,9.70
2019-05-02T00:37:50.209Z,9.70
2019-05-02T00:40:25.709Z,9.70
2019-05-02T00:42:58.232Z,9.70
2019-05-02T00:45:26.635Z,9.70
2019-05-02T00:48:08.869Z,9.80
2019-05-02T00:50:40.871Z,9.70
2019-05-02T00:53:13.524Z,9.70
2019-05-02T00:55:44.620Z,9.60
2019-05-02T00:58:15.625Z,9.60
2019-05-02T01:01:05.005Z,9.60
2019-05-02T01:03:37.152Z,9.50
2019-05-02T01:06:13.976Z,9.50
2019-05-02T01:08:42.094Z,9.40
2019-05-02T01:11:14.103Z,9.40
2019-05-02T01:13:45.111Z,9.40
2019-05-02T01:16:19.177Z,9.40
2019-05-02T01:18:49.082Z,9.40
2019-05-02T01:21:20.074Z,9.40
2019-05-02T01:23:51.122Z,9.40
2019-05-02T01:26:29.288Z,9.40
2019-05-02T01:29:08.953Z,9.40
2019-05-02T01:31:56.624Z,9.40
2019-05-02T01:34:43.114Z,9.40
2019-05-02T01:37:35.668Z,9.40
2019-05-02T01:40:07.145Z,9.30
2019-05-02T01:42:39.981Z,9.30
2019-05-02T01:45:12.467Z,9.40
2019-05-02T01:47:43.533Z,9.40
2019-05-02T01:50:14.947Z,9.30
2019-05-02T01:52:45.811Z,9.40
2019-05-02T01:55:17.034Z,9.40
2019-05-02T01:57:49.321Z,9.40
2019-05-02T02:00:22.479Z,9.50
2019-05-02T02:02:53.345Z,9.40
2019-05-02T02:05:27.634Z,9.50
2019-05-02T02:07:58.887Z,9.50
2019-05-02T02:10:31.032Z,9.50
2019-05-02T02:13:04.911Z,9.50
2019-05-02T02:15:34.674Z,9.50
2019-05-02T02:18:06.043Z,9.40
2019-05-02T02:20:48.807Z,9.50
2019-05-02T02:23:27.799Z,9.50
2019-05-02T02:26:06.795Z,9.50
2019-05-02T02:28:36.563Z,9.50
2019-05-02T02:31:08.106Z,9.50
2019-05-02T02:33:40.789Z,9.50
2019-05-02T02:36:11.864Z,9.40
2019-05-02T02:38:42.875Z,9.30
2019-05-02T02:41:15.070Z,9.40
2019-05-02T02:43:54.775Z,9.30
2019-05-02T02:46:37.752Z,9.30
2019-05-02T02:49:04.579Z,9.30
2019-05-02T02:51:35.534Z,9.30
2019-05-02T02:54:07.959Z,9.20
2019-05-02T02:56:40.423Z,9.20
2019-05-02T02:59:11.682Z,9.20
2019-05-02T03:01:42.608Z,9.10
2019-05-02T03:04:13.600Z,9.10
2019-05-02T03:06:46.976Z,9.10
2019-05-02T03:09:20.362Z,9.10
2019-05-02T03:12:07.372Z,9.10
2019-05-02T03:14:47.092Z,9.10
2019-05-02T03:17:20.564Z,9.10
2019-05-02T03:19:48.604Z,9.10
2019-05-02T03:22:19.750Z,9.10
2019-05-02T03:24:50.837Z,9.00
2019-05-02T03:27:22.517Z,9.00
2019-05-02T03:29:53.676Z,9.00
2019-05-02T03:32:33.725Z,8.90
2019-05-02T03:35:00.957Z,8.90
2019-05-02T03:37:32.149Z,8.90
2019-05-02T03:40:03.165Z,8.80
2019-05-02T03:42:43.693Z,8.80
2019-05-02T03:45:07.600Z,8.70
2019-05-02T03:47:43.861Z,8.70
2019-05-02T03:50:11.669Z,8.70
2019-05-02T03:52:46.377Z,8.70
2019-05-02T03:55:16.523Z,8.70
2019-05-02T03:57:47.473Z,8.70
2019-05-02T04:00:23.758Z,8.80
2019-05-02T04:02:58.915Z,8.80
2019-05-02T04:05:26.091Z,8.80
2019-05-02T04:07:57.317Z,8.80
2019-05-02T04:11:22.274Z,8.70
2019-05-02T04:13:54.885Z,8.70
2019-05-02T04:16:28.224Z,8.70
2019-05-02T04:19:03.618Z,8.60
2019-05-02T04:21:36.008Z,8.60
2019-05-02T04:24:13.655Z,8.60
2019-05-02T04:26:52.672Z,8.60
2019-05-02T04:29:14.403Z,8.50
2019-05-02T04:31:45.444Z,8.50
2019-05-02T04:34:17.940Z,8.50
2019-05-02T04:37:00.177Z,8.50
2019-05-02T04:39:22.654Z,8.50
2019-05-02T04:41:53.933Z,8.60
2019-05-02T04:44:32.457Z,8.60
2019-05-02T04:46:59.971Z,8.60
2019-05-02T04:49:35.685Z,8.70
2019-05-02T04:52:07.793Z,8.70
2019-05-02T04:54:38.067Z,8.70
2019-05-02T04:57:09.124Z,8.70
2019-05-02T04:59:41.270Z,8.70
2019-05-02T05:02:12.193Z,8.70
2019-05-02T05:04:48.633Z,8.60
2019-05-02T05:07:17.708Z,8.70
2019-05-02T05:09:56.983Z,8.70
2019-05-02T05:12:21.123Z,8.70
2019-05-02T05:14:52.213Z,8.70
2019-05-02T05:17:25.105Z,8.70
2019-05-02T05:19:57.383Z,8.70
2019-05-02T05:22:28.754Z,8.70
2019-05-02T05:25:07.274Z,8.70
2019-05-02T05:27:38.241Z,8.70
2019-05-02T05:30:15.634Z,8.70
2019-05-02T05:32:47.782Z,8.70
2019-05-02T05:35:18.564Z,8.70
2019-05-02T05:37:53.107Z,8.60
2019-05-02T05:40:27.142Z,8.60
2019-05-02T05:42:57.231Z,8.70
2019-05-02T05:45:28.784Z,8.70
2019-05-02T05:48:01.329Z,8.70
2019-05-02T05:50:36.867Z,8.60
2019-05-02T05:53:05.380Z,8.60
2019-05-02T05:55:38.211Z,8.60
2019-05-02T05:58:15.344Z,8.50
2019-05-02T06:00:46.004Z,8.50
2019-05-02T06:03:15.463Z,8.50
2019-05-02T06:05:47.729Z,8.50
2019-05-02T06:08:19.955Z,8.60
2019-05-02T06:10:51.643Z,8.60
2019-05-02T06:13:22.726Z,8.60
2019-05-02T06:16:02.083Z,8.60
2019-05-02T06:18:28.354Z,8.70
2019-05-02T06:21:03.427Z,8.70
2019-05-02T06:23:36.356Z,8.70
2019-05-02T06:26:07.956Z,8.70
2019-05-02T06:28:41.662Z,8.70
2019-05-02T06:31:11.735Z,8.70
2019-05-02T06:33:43.414Z,8.70
2019-05-02T06:36:15.227Z,8.70
2019-05-02T06:38:46.775Z,8.70
2019-05-02T06:41:21.020Z,8.70
2019-05-02T06:43:51.414Z,8.60
2019-05-02T06:46:27.499Z,8.60
2019-05-02T06:49:04.735Z,8.70
2019-05-02T06:54:40.553Z,8.80
2019-05-02T06:57:11.724Z,8.90
2019-05-02T06:59:42.933Z,9.00
2019-05-02T07:02:15.203Z,9.00
2019-05-02T07:04:49.524Z,9.10
2019-05-02T07:07:25.094Z,9.20
2019-05-02T07:09:54.561Z,9.30
2019-05-02T07:12:26.023Z,9.30
2019-05-02T07:15:01.574Z,9.30
2019-05-02T07:17:38.485Z,9.30
2019-05-02T07:20:10.186Z,9.30
2019-05-02T07:22:45.465Z,9.30
2019-05-02T07:25:18.321Z,9.20
2019-05-02T07:27:51.331Z,9.20
2019-05-02T07:30:23.090Z,9.30
2019-05-02T07:32:56.279Z,9.30
2019-05-02T07:35:26.820Z,9.40
2019-05-02T07:37:59.588Z,9.40
2019-05-02T07:40:31.137Z,9.40
2019-05-02T07:43:02.873Z,9.40
2019-05-02T07:45:34.593Z,9.40
2019-05-02T07:48:06.094Z,9.60
2019-05-02T07:50:41.207Z,9.60
2019-05-02T07:53:14.143Z,9.60
2019-05-02T07:55:42.794Z,9.60
2019-05-02T07:58:14.196Z,9.70
2019-05-02T08:00:45.684Z,9.70
2019-05-02T08:03:17.279Z,9.70
2019-05-02T08:05:54.497Z,9.80
2019-05-02T08:08:29.861Z,9.80
2019-05-02T08:11:01.715Z,9.80
2019-05-02T08:13:33.767Z,9.80
2019-05-02T08:16:04.894Z,9.80
2019-05-02T08:18:36.056Z,9.80
2019-05-02T08:21:07.323Z,9.80
2019-05-02T08:23:39.080Z,9.80
2019-05-02T08:26:10.231Z,9.80
2019-05-02T08:28:55.577Z,9.80
2019-05-02T08:31:30.030Z,9.70
2019-05-02T08:34:00.020Z,9.70
2019-05-02T08:36:32.258Z,9.80
2019-05-02T08:39:05.429Z,9.80
2019-05-02T08:41:40.165Z,9.80
2019-05-02T08:44:16.840Z,9.80
2019-05-02T08:46:46.158Z,9.80
2019-05-02T08:49:18.855Z,9.80
2019-05-02T08:51:51.471Z,9.80
2019-05-02T08:54:23.172Z,9.80
2019-05-02T08:56:58.990Z,9.80
2019-05-02T08:59:27.684Z,9.90
2019-05-02T09:01:58.949Z,10.00
2019-05-02T09:04:30.687Z,10.10
2019-05-02T09:07:04.122Z,10.10
2019-05-02T09:09:35.256Z,10.10
2019-05-02T09:12:12.293Z,10.10
2019-05-02T09:14:39.964Z,10.10
2019-05-02T09:17:15.859Z,10.20
2019-05-02T09:19:59.438Z,10.20
2019-05-02T09:22:22.067Z,10.20
2019-05-02T09:24:54.355Z,10.40
2019-05-02T09:27:34.948Z,10.60
2019-05-02T09:30:12.061Z,10.80
2019-05-02T09:32:44.049Z,10.90
2019-05-02T09:35:17.622Z,11.00
2019-05-02T09:37:49.540Z,11.20
2019-05-02T09:40:23.434Z,11.20
2019-05-02T09:43:00.215Z,11.10
2019-05-02T09:45:37.007Z,11.10
2019-05-02T09:48:08.151Z,11.00
2019-05-02T09:50:45.012Z,10.90
2019-05-02T09:53:20.619Z,10.90
2019-05-02T09:55:55.743Z,10.80
2019-05-02T09:58:25.585Z,10.70
2019-05-02T10:01:03.958Z,10.60
2019-05-02T10:03:36.257Z,10.50
2019-05-02T10:06:13.887Z,10.50
2019-05-02T10:08:46.301Z,10.50
2019-05-02T10:11:23.880Z,10.60
2019-05-02T10:13:55.433Z,10.70
2019-05-02T10:16:31.973Z,11.00
2019-05-02T10:19:09.462Z,11.30
2019-05-02T10:22:31.072Z,11.30
2019-05-02T10:25:08.494Z,11.30
2019-05-02T10:27:45.945Z,11.40
2019-05-02T10:30:18.131Z,11.40
2019-05-02T10:32:52.927Z,11.20
2019-05-02T10:35:34.080Z,11.10
2019-05-02T10:41:01.331Z,10.70
2019-05-02T10:43:34.239Z,10.60
2019-05-02T10:46:23.042Z,10.50
2019-05-02T10:49:01.975Z,10.30
2019-05-02T10:51:34.669Z,10.30
2019-05-02T10:54:07.065Z,10.40
2019-05-02T10:56:39.757Z,10.50
2019-05-02T10:59:12.267Z,10.50
2019-05-02T11:02:06.585Z,10.70
2019-05-02T11:04:43.623Z,10.70
2019-05-02T11:07:16.977Z,10.70
2019-05-02T11:09:49.080Z,10.70
2019-05-02T11:12:44.506Z,10.70
2019-05-02T11:15:33.031Z,10.60
2019-05-02T11:18:04.691Z,10.50
2019-05-02T11:20:35.977Z,10.30
2019-05-02T11:23:07.484Z,10.20
2019-05-02T11:25:38.751Z,10.20
2019-05-02T11:28:09.938Z,10.10
2019-05-02T11:30:42.050Z,10.10
2019-05-02T11:33:32.466Z,10.10
2019-05-02T11:36:03.512Z,10.10
2019-05-02T11:38:40.894Z,10.20
2019-05-02T11:41:22.260Z,10.30
2019-05-02T11:43:55.860Z,10.30
2019-05-02T11:46:26.999Z,10.30
2019-05-02T11:49:02.414Z,10.40
2019-05-02T11:51:33.924Z,10.60
2019-05-02T11:54:09.203Z,10.80
2019-05-02T11:56:41.104Z,10.90
2019-05-02T11:59:14.422Z,11.00
2019-05-02T12:01:57.637Z,11.00
2019-05-02T12:04:21.526Z,10.90
2019-05-02T12:07:01.142Z,10.80
2019-05-02T12:09:25.680Z,10.80
2019-05-02T12:11:59.423Z,10.70
2019-05-02T12:14:32.875Z,10.70
2019-05-02T12:17:03.137Z,10.70
2019-05-02T12:19:34.325Z,10.70
2019-05-02T12:22:07.274Z,10.70
2019-05-02T12:24:40.927Z,10.60
2019-05-02T12:27:11.785Z,10.50
2019-05-02T12:29:42.912Z,10.50
2019-05-02T12:32:19.179Z,10.50
2019-05-02T12:34:50.220Z,10.50
2019-05-02T12:37:21.920Z,10.50
2019-05-02T12:39:53.231Z,10.50
2019-05-02T12:42:25.383Z,10.40
2019-05-02T12:44:57.409Z,10.50
2019-05-02T12:47:28.699Z,10.60
2019-05-02T12:49:59.642Z,10.70
2019-05-02T12:52:32.054Z,10.80
2019-05-02T12:55:03.948Z,10.70
2019-05-02T12:57:35.060Z,10.70
2019-05-02T13:00:07.387Z,10.60
2019-05-02T13:02:46.576Z,10.60
2019-05-02T13:05:17.761Z,10.70
2019-05-02T13:07:53.564Z,11.00
2019-05-02T13:10:32.700Z,11.20
2019-05-02T13:13:04.644Z,11.30
2019-05-02T13:15:35.978Z,11.30
2019-05-02T13:18:07.426Z,11.20
2019-05-02T13:20:41.736Z,11.00
2019-05-02T13:23:37.046Z,10.80
2019-05-02T13:26:18.464Z,10.60
2019-05-02T13:28:42.338Z,10.40
2019-05-02T13:31:32.055Z,10.20
2019-05-02T13:34:18.623Z,10.10
2019-05-02T13:36:51.934Z,10.10
2019-05-02T13:39:42.850Z,10.30
2019-05-02T13:42:14.786Z,10.50
2019-05-02T13:47:42.778Z,10.50
2019-05-02T13:50:22.187Z,10.50
2019-05-02T13:53:07.199Z,10.50
2019-05-02T13:55:57.846Z,10.50
2019-05-02T13:58:32.673Z,10.50
2019-05-02T14:01:03.433Z,10.50
2019-05-02T14:03:35.216Z,10.50
2019-05-02T14:06:07.158Z,10.50
2019-05-02T14:08:56.181Z,10.50
2019-05-02T14:11:48.993Z,10.60
2019-05-02T14:14:20.371Z,10.80
2019-05-02T14:16:53.021Z,11.20
2019-05-02T14:19:24.147Z,11.70
2019-05-02T14:21:55.259Z,12.20
2019-05-02T14:24:26.409Z,12.10
2019-05-02T14:26:58.136Z,12.00
2019-05-02T14:29:29.847Z,11.70
2019-05-02T14:32:02.703Z,11.60
2019-05-02T14:35:05.852Z,11.50
2019-05-02T14:37:38.384Z,11.40
2019-05-02T14:40:26.797Z,11.30
2019-05-02T14:43:05.262Z,11.20
2019-05-02T14:45:43.761Z,11.20
2019-05-02T14:48:21.390Z,11.20
2019-05-02T14:50:52.098Z,11.10
2019-05-02T14:53:25.500Z,11.10
2019-05-02T14:56:04.393Z,11.10
2019-05-02T14:58:32.510Z,11.00
2019-05-02T15:01:04.107Z,11.00
2019-05-02T15:03:35.688Z,10.90
2019-05-02T15:06:07.268Z,10.80
2019-05-02T15:08:41.952Z,10.80
2019-05-02T15:11:12.532Z,11.00
2019-05-02T15:13:44.173Z,11.60
2019-05-02T15:16:17.666Z,12.40
2019-05-02T15:18:52.505Z,12.80
2019-05-02T15:21:22.865Z,12.80
2019-05-02T15:23:57.775Z,12.60
2019-05-02T15:26:31.309Z,12.20
2019-05-02T15:29:01.791Z,11.80
2019-05-02T15:31:34.395Z,11.70
2019-05-02T15:34:35.522Z,11.60
2019-05-02T15:37:03.235Z,11.50
2019-05-02T15:42:12.094Z,11.50
2019-05-02T15:44:43.517Z,11.50
2019-05-02T15:47:37.105Z,11.40
2019-05-02T15:50:22.009Z,11.30
2019-05-02T15:53:03.164Z,11.30
2019-05-02T16:01:27.676Z,11.20
2019-05-02T16:04:01.607Z,11.40
2019-05-02T16:06:33.994Z,11.40
2019-05-02T16:09:07.169Z,11.50
2019-05-02T16:11:40.482Z,11.60
2019-05-02T16:14:12.784Z,11.70
2019-05-02T16:16:45.279Z,11.70
2019-05-02T16:19:27.132Z,11.60
2019-05-02T16:22:11.526Z,11.50
2019-05-02T16:24:43.866Z,11.40
2019-05-02T16:27:23.724Z,11.20
2019-05-02T16:29:58.433Z,11.20
2019-05-02T16:32:37.848Z,11.20
2019-05-02T16:35:15.296Z,11.10
2019-05-02T16:37:46.670Z,11.00
2019-05-02T16:40:23.913Z,11.00
2019-05-02T16:42:52.753Z,11.00
2019-05-02T16:45:24.064Z,10.90
2019-05-02T16:48:00.299Z,10.80
2019-05-02T16:50:32.983Z,10.80
2019-05-02T16:53:02.284Z,10.70
2019-05-02T16:55:34.210Z,10.70
2019-05-02T16:58:07.254Z,10.80
2019-05-02T17:00:42.580Z,10.90
2019-05-02T17:03:17.409Z,10.90
2019-05-02T17:05:48.042Z,10.80
2019-05-02T17:08:44.506Z,10.70
2019-05-02T17:11:20.340Z,10.70
2019-05-02T17:13:52.755Z,10.70
2019-05-02T17:16:24.140Z,10.60
2019-05-02T17:18:57.318Z,10.50
2019-05-02T17:21:33.733Z,10.40
2019-05-02T17:24:02.869Z,10.30
2019-05-02T17:26:34.301Z,10.30
2019-05-02T17:29:07.506Z,10.20
2019-05-02T17:31:39.572Z,10.20
2019-05-02T17:34:14.796Z,10.20
2019-05-02T17:36:46.711Z,10.10
2019-05-02T17:39:22.149Z,10.10
2019-05-02T17:41:54.146Z,10.10
2019-05-02T17:44:26.090Z,10.00
2019-05-02T17:47:01.502Z,10.00
2019-05-02T17:49:36.599Z,10.00
2019-05-02T17:52:33.521Z,10.00
2019-05-02T17:55:06.763Z,10.00
2019-05-02T17:57:37.741Z,10.00
2019-05-02T18:00:16.930Z,10.00
2019-05-02T18:02:51.844Z,10.00
2019-05-02T18:05:21.727Z,9.90
2019-05-02T18:07:52.764Z,9.90
2019-05-02T18:10:25.123Z,9.80
2019-05-02T18:12:59.755Z,9.80
2019-05-02T18:15:34.765Z,9.70
2019-05-02T18:18:06.536Z,9.70
2019-05-02T18:20:37.137Z,9.60
2019-05-02T18:23:09.347Z,9.50
2019-05-02T18:25:40.928Z,9.50
2019-05-02T18:28:14.036Z,9.50
2019-05-02T18:30:44.944Z,9.50
2019-05-02T18:33:15.960Z,9.50
2019-05-02T18:35:47.353Z,9.60
2019-05-02T18:38:20.911Z,9.60
2019-05-02T18:40:52.138Z,9.60
2019-05-02T18:43:23.693Z,9.60
2019-05-02T18:45:58.190Z,9.60
2019-05-02T18:48:27.599Z,9.60
2019-05-02T18:50:59.120Z,9.60
2019-05-02T18:53:30.061Z,9.70
2019-05-02T18:56:03.460Z,9.70
2019-05-02T18:58:36.340Z,9.70
2019-05-02T19:01:08.597Z,9.70
2019-05-02T19:03:39.751Z,9.70
2019-05-02T19:06:11.703Z,9.80
2019-05-02T19:08:49.615Z,9.80
2019-05-02T19:11:19.811Z,9.80
2019-05-02T19:13:52.519Z,9.80
2019-05-02T19:16:27.258Z,9.80
2019-05-02T19:18:57.644Z,9.80
2019-05-02T19:21:32.102Z,9.80
2019-05-02T19:24:02.406Z,9.80
2019-05-02T19:26:33.769Z,9.80
2019-05-02T19:29:33.153Z,9.80
2019-05-02T19:32:06.594Z,9.80
2019-05-02T19:34:41.797Z,9.80
2019-05-02T19:37:13.348Z,9.80
2019-05-02T19:39:48.720Z,9.80
2019-05-02T19:42:22.649Z,9.80
2019-05-02T19:44:54.378Z,9.80
2019-05-02T19:47:25.510Z,9.80
2019-05-02T19:49:56.867Z,9.70
2019-05-02T19:52:28.558Z,9.60
2019-05-02T19:55:00.610Z,9.50
2019-05-02T19:57:32.423Z,9.40
2019-05-02T20:00:06.552Z,9.30
2019-05-02T20:02:42.241Z,9.30
2019-05-02T20:05:11.824Z,9.30
2019-05-02T20:07:43.823Z,9.30
2019-05-02T20:10:17.893Z,9.30
2019-05-02T20:12:50.461Z,9.30
2019-05-02T20:15:26.814Z,9.30
2019-05-02T20:18:00.423Z,9.30
2019-05-02T20:21:25.967Z,9.30
2019-05-02T20:23:52.637Z,9.30
2019-05-02T20:26:23.926Z,9.30
2019-05-02T20:28:55.017Z,9.30
2019-05-02T20:31:26.690Z,9.30
2019-05-02T20:33:58.454Z,9.30
2019-05-02T20:36:31.982Z,9.30
2019-05-02T20:39:03.632Z,9.30
2019-05-02T20:41:36.439Z,9.40
2019-05-02T20:44:08.489Z,9.40
2019-05-02T20:46:39.656Z,9.40
2019-05-02T20:49:12.614Z,9.40
2019-05-02T20:51:45.050Z,9.40
2019-05-02T20:54:16.455Z,9.40
2019-05-02T20:56:49.194Z,9.40
2019-05-02T20:59:21.829Z,9.30
2019-05-02T21:01:53.646Z,9.30
2019-05-02T21:04:25.320Z,9.30
2019-05-02T21:07:10.839Z,9.30
2019-05-02T21:09:56.198Z,9.30
2019-05-02T21:12:28.998Z,9.30
2019-05-02T21:15:01.741Z,9.20
2019-05-02T21:17:34.997Z,9.20
2019-05-02T21:20:07.838Z,9.20
2019-05-02T21:22:39.357Z,9.10
2019-05-02T21:25:12.861Z,9.10
2019-05-02T21:27:44.038Z,9.10
2019-05-02T21:30:17.836Z,9.10
2019-05-02T21:32:49.726Z,9.10
2019-05-02T21:35:22.387Z,9.10
2019-05-02T21:37:53.968Z,9.10
2019-05-02T21:40:25.936Z,9.10
2019-05-02T21:42:57.677Z,9.10
2019-05-02T21:45:29.286Z,9.10
2019-05-02T21:48:02.301Z,9.10
2019-05-02T21:50:51.556Z,9.10
2019-05-02T21:53:58.468Z,9.10
2019-05-02T21:56:45.805Z,9.10
2019-05-02T21:59:18.398Z,9.10
2019-05-02T22:01:55.247Z,9.10
2019-05-02T22:04:27.162Z,9.10
2019-05-02T22:06:58.877Z,9.10
2019-05-02T22:09:32.181Z,9.10
2019-05-02T22:12:03.878Z,9.10
2019-05-02T22:14:35.598Z,9.10
2019-05-02T22:17:07.438Z,9.10
2019-05-02T22:19:39.000Z,9.10
2019-05-02T22:22:12.218Z,9.10
2019-05-02T22:24:43.956Z,9.20
2019-05-02T22:27:15.637Z,9.10
2019-05-02T22:29:47.076Z,9.10
2019-05-02T22:32:18.757Z,9.10
2019-05-02T22:34:52.762Z,9.00
2019-05-02T22:37:24.582Z,9.00
2019-05-02T22:40:03.629Z,9.10
2019-05-02T22:42:32.866Z,9.10
2019-05-02T22:45:04.782Z,9.10
2019-05-02T22:47:35.966Z,9.10
2019-05-02T22:50:07.392Z,9.10
2019-05-02T22:52:38.474Z,9.10
2019-05-02T22:55:09.524Z,9.00
2019-05-02T22:57:42.065Z,9.00
2019-05-02T23:00:13.396Z,9.00
2019-05-02T23:02:44.344Z,9.00
2019-05-02T23:05:15.603Z,9.00
2019-05-02T23:07:46.782Z,9.00
2019-05-02T23:10:17.866Z,8.90
2019-05-02T23:12:48.928Z,8.90
2019-05-02T23:15:21.685Z,8.90
2019-05-02T23:17:52.656Z,8.90
2019-05-02T23:20:24.444Z,8.90
2019-05-02T23:22:55.576Z,8.90
2019-05-02T23:25:44.309Z,8.80
2019-05-02T23:28:22.163Z,8.80
2019-05-02T23:30:55.148Z,8.80
2019-05-02T23:33:28.477Z,8.80
2019-05-02T23:35:59.316Z,8.70
2019-05-02T23:38:32.200Z,8.80
2019-05-02T23:41:02.896Z,8.80
2019-05-02T23:43:33.970Z,8.80
2019-05-02T23:46:05.162Z,8.70
2019-05-02T23:48:36.074Z,8.70
2019-05-02T23:51:07.159Z,8.70
2019-05-02T23:53:38.104Z,8.70
2019-05-02T23:56:09.178Z,8.70
2019-05-02T23:58:40.221Z,8.70
